Lawrenceville, Georgia
Current Conditions -  °F | °C
As of 8:45 PM on Thursday 27 Nov 2014 (Local Time) from KLZU Reporting Station
Overcast Overcast  
Wind Chill: 31°   Ceiling: 4000
Heat Index: 37°   Visibility: 10mi
Dew Point: 21°   Wind: 8mph
Humidity: 52%   Direction: 290°WNW
Pressure: 30.33"   Gusts: NA
Location:  33.95°N, 83.99°W
Report Text: KLZU 280145Z 29007KT 10SM OVC040 03/M06 A3033 RMK JW
Loading
Personal Weather Stations






























Interactive Weather Map New forecast layout! Learn more

10-Day Weather Forecast

Advertisements
Track Severe Weather on mobile